Time;durP1;ratioP1;P1;durP2;ratioP2;P2;SDS_P1;SDS_P2;PMS_P1;PMS_P2;Temp;Humidity;BMP_temperature;BMP_pressure;BME280_temperature;BME280_humidity;BME280_pressure;Samples;Min_cycle;Max_cycle;Signal;HPM_P1;HPM_P2
2022/03/28 00:02:09;;;;;;;;;;;19.90;51.30;;;;;;5023568;28;19917;-69
2022/03/28 00:04:34;;;;;;;;;;;19.90;51.30;;;;;;5002226;28;20553;-71
2022/03/28 00:07:00;;;;;;;;;;;19.90;51.30;;;;;;5003251;28;19966;-70
2022/03/28 00:09:25;;;;;;;;;;;19.90;51.30;;;;;;5010726;28;19913;-69
2022/03/28 00:11:51;;;;;;;;;;;19.90;51.30;;;;;;5023768;28;19923;-69
2022/03/28 00:14:16;;;;;;;;;;;19.90;51.30;;;;;;5017075;28;20623;-69
2022/03/28 00:16:42;;;;;;;;;;;19.90;51.30;;;;;;5003496;28;19913;-69
2022/03/28 00:19:07;;;;;;;;;;;19.90;51.30;;;;;;5006627;28;20468;-69
2022/03/28 00:21:32;;;;;;;;;;;19.90;51.30;;;;;;5022822;28;21371;-69
2022/03/28 00:23:58;;;;;;;;;;;19.90;51.30;;;;;;5020720;28;19967;-69
2022/03/28 00:26:23;;;;;;;;;;;19.90;51.40;;;;;;4985783;28;19924;-69
2022/03/28 00:28:49;;;;;;;;;;;19.90;51.30;;;;;;5002927;28;19913;-69
2022/03/28 00:31:14;;;;;;;;;;;19.90;51.30;;;;;;5022025;28;19967;-70
2022/03/28 00:33:40;;;;;;;;;;;19.90;51.30;;;;;;5022532;28;19913;-69
2022/03/28 00:36:05;;;;;;;;;;;19.90;51.30;;;;;;5004417;28;19913;-69
2022/03/28 00:38:31;;;;;;;;;;;19.90;51.30;;;;;;5002191;28;19914;-69
2022/03/28 00:40:56;;;;;;;;;;;19.90;51.30;;;;;;5019010;28;20008;-69
2022/03/28 00:43:22;;;;;;;;;;;19.90;51.30;;;;;;5022470;28;20591;-69
2022/03/28 00:45:48;;;;;;;;;;;19.80;51.30;;;;;;5008147;28;19916;-68
2022/03/28 00:48:13;;;;;;;;;;;19.80;51.30;;;;;;5003343;28;19921;-69
2022/03/28 00:50:39;;;;;;;;;;;19.80;51.30;;;;;;4997496;28;20445;-70
2022/03/28 00:53:05;;;;;;;;;;;19.80;51.30;;;;;;5005333;28;20006;-70
2022/03/28 00:55:30;;;;;;;;;;;19.80;51.30;;;;;;5012416;28;19920;-69
2022/03/28 00:57:56;;;;;;;;;;;19.80;51.40;;;;;;5001455;28;19979;-69
2022/03/28 01:00:21;;;;;;;;;;;19.80;51.30;;;;;;5010041;28;19913;-70
2022/03/28 01:02:47;;;;;;;;;;;19.80;51.30;;;;;;5016655;28;19925;-69
2022/03/28 01:05:12;;;;;;;;;;;19.80;51.30;;;;;;5005940;28;19919;-68
2022/03/28 01:07:41;;;;;;;;;;;19.80;51.30;;;;;;4984554;28;19937;-69
2022/03/28 01:10:08;;;;;;;;;;;19.80;51.30;;;;;;4970151;28;19913;-69
2022/03/28 01:12:34;;;;;;;;;;;19.80;51.40;;;;;;4984731;28;19924;-69
2022/03/28 01:15:00;;;;;;;;;;;19.70;51.40;;;;;;4989183;28;20372;-69
2022/03/28 01:20:10;;;;;;;;;;;19.80;51.50;;;;;;5002206;28;20025;-69
2022/03/28 01:22:35;;;;;;;;;;;19.70;51.30;;;;;;5000823;28;20016;-69
2022/03/28 01:25:02;;;;;;;;;;;19.70;51.30;;;;;;5005026;28;20395;-69
2022/03/28 01:27:28;;;;;;;;;;;19.80;51.30;;;;;;4987459;28;19917;-71
2022/03/28 01:29:53;;;;;;;;;;;19.70;51.30;;;;;;5018865;28;19924;-69
2022/03/28 01:32:19;;;;;;;;;;;19.70;51.40;;;;;;5002042;28;19913;-69
2022/03/28 01:34:45;;;;;;;;;;;19.70;51.50;;;;;;4984108;28;20310;-69
2022/03/28 01:37:10;;;;;;;;;;;19.70;51.40;;;;;;5020269;28;19925;-69
2022/03/28 01:39:35;;;;;;;;;;;19.70;51.40;;;;;;5003275;28;19917;-70
2022/03/28 01:42:01;;;;;;;;;;;19.70;51.40;;;;;;5002627;28;19928;-69
2022/03/28 01:44:26;;;;;;;;;;;19.70;51.50;;;;;;5001289;28;20335;-69
2022/03/28 01:46:52;;;;;;;;;;;19.70;51.50;;;;;;4997885;28;19971;-69
2022/03/28 01:49:18;;;;;;;;;;;19.70;51.50;;;;;;5002644;28;19917;-69
2022/03/28 01:51:44;;;;;;;;;;;19.70;51.50;;;;;;4983774;28;20217;-69
2022/03/28 01:54:09;;;;;;;;;;;19.60;51.50;;;;;;4984155;28;20303;-69
2022/03/28 01:56:35;;;;;;;;;;;19.70;51.50;;;;;;5011956;28;19913;-69
2022/03/28 01:59:01;;;;;;;;;;;19.60;51.50;;;;;;5019812;28;20343;-70
2022/03/28 02:01:26;;;;;;;;;;;19.60;51.40;;;;;;4993843;28;19956;-71
2022/03/28 02:03:52;;;;;;;;;;;19.60;51.40;;;;;;4983455;28;19938;-69
2022/03/28 02:06:17;;;;;;;;;;;19.60;51.50;;;;;;5007270;28;20379;-69
2022/03/28 02:08:43;;;;;;;;;;;19.60;51.40;;;;;;5002725;28;19975;-69
2022/03/28 02:11:08;;;;;;;;;;;19.60;51.50;;;;;;5013828;28;19940;-69
2022/03/28 02:13:34;;;;;;;;;;;19.60;51.40;;;;;;4983727;28;19929;-69
2022/03/28 02:16:00;;;;;;;;;;;19.60;51.50;;;;;;5004719;28;19968;-69
2022/03/28 02:18:26;;;;;;;;;;;19.60;51.50;;;;;;5001925;28;20444;-67
2022/03/28 02:20:52;;;;;;;;;;;19.60;51.40;;;;;;5018420;28;19921;-69
2022/03/28 02:23:17;;;;;;;;;;;19.60;51.50;;;;;;4999759;28;19910;-69
2022/03/28 02:25:42;;;;;;;;;;;19.60;51.50;;;;;;4983761;28;19913;-69
2022/03/28 02:28:08;;;;;;;;;;;19.60;51.50;;;;;;4981672;28;20133;-69
2022/03/28 02:30:34;;;;;;;;;;;19.50;51.50;;;;;;4981196;28;19918;-69
2022/03/28 02:32:59;;;;;;;;;;;19.60;51.50;;;;;;4999577;28;20292;-70
2022/03/28 02:35:25;;;;;;;;;;;19.60;51.50;;;;;;5002978;28;19921;-68
2022/03/28 02:37:50;;;;;;;;;;;19.60;51.40;;;;;;5002210;28;20400;-69
2022/03/28 02:40:16;;;;;;;;;;;19.50;51.40;;;;;;4998714;28;19921;-69
2022/03/28 02:42:41;;;;;;;;;;;19.60;51.40;;;;;;4997587;28;19952;-68
2022/03/28 02:45:07;;;;;;;;;;;19.50;51.50;;;;;;4986375;28;19913;-69
2022/03/28 02:47:32;;;;;;;;;;;19.50;51.60;;;;;;4999556;28;20347;-69
2022/03/28 02:49:58;;;;;;;;;;;19.50;51.40;;;;;;5000369;28;20003;-69
2022/03/28 02:52:23;;;;;;;;;;;19.50;51.40;;;;;;4986878;28;20260;-70
2022/03/28 02:54:49;;;;;;;;;;;19.50;51.40;;;;;;5022740;28;19917;-70
2022/03/28 02:57:14;;;;;;;;;;;19.50;51.40;;;;;;5015782;28;19921;-69
2022/03/28 02:59:40;;;;;;;;;;;19.50;51.40;;;;;;4986464;28;19945;-70
2022/03/28 03:02:05;;;;;;;;;;;19.50;51.40;;;;;;4993113;28;19913;-68
2022/03/28 03:04:34;;;;;;;;;;;19.50;51.40;;;;;;5023609;28;19920;-69
2022/03/28 03:07:00;;;;;;;;;;;19.50;51.40;;;;;;5018682;28;19917;-69
2022/03/28 03:09:25;;;;;;;;;;;19.50;51.50;;;;;;4985436;28;19990;-69
2022/03/28 03:11:51;;;;;;;;;;;19.40;51.40;;;;;;5007222;28;20265;-69
2022/03/28 03:14:16;;;;;;;;;;;19.40;51.40;;;;;;5006446;28;19929;-69
2022/03/28 03:16:43;;;;;;;;;;;19.40;51.40;;;;;;5005448;28;20398;-69
2022/03/28 03:19:09;;;;;;;;;;;19.40;51.40;;;;;;4985488;28;19917;-69
2022/03/28 03:21:34;;;;;;;;;;;19.50;51.50;;;;;;5003189;28;19983;-69
2022/03/28 03:24:00;;;;;;;;;;;19.40;51.50;;;;;;5005301;28;20355;-69
2022/03/28 03:26:25;;;;;;;;;;;19.40;51.50;;;;;;5023332;28;20552;-69
2022/03/28 03:28:51;;;;;;;;;;;19.40;51.50;;;;;;4988048;28;19953;-69
2022/03/28 03:31:16;;;;;;;;;;;19.40;51.50;;;;;;4985500;28;19921;-69
2022/03/28 03:33:42;;;;;;;;;;;19.40;51.50;;;;;;4986638;28;19959;-69
2022/03/28 03:36:07;;;;;;;;;;;19.40;51.50;;;;;;5002280;28;19921;-69
2022/03/28 03:38:32;;;;;;;;;;;19.30;51.40;;;;;;4998875;28;19917;-68
2022/03/28 03:40:58;;;;;;;;;;;19.40;51.50;;;;;;5024758;28;19924;-69
2022/03/28 03:43:25;;;;;;;;;;;19.40;51.60;;;;;;4995969;28;19909;-68
2022/03/28 03:45:51;;;;;;;;;;;19.30;51.50;;;;;;5007746;28;20331;-69
2022/03/28 03:48:16;;;;;;;;;;;19.30;51.50;;;;;;5014056;28;19909;-68
2022/03/28 03:50:42;;;;;;;;;;;19.30;51.40;;;;;;5023330;28;19914;-68
2022/03/28 03:53:07;;;;;;;;;;;19.40;51.40;;;;;;5014882;28;19917;-69
2022/03/28 03:55:33;;;;;;;;;;;19.30;51.50;;;;;;4985484;28;19917;-68
2022/03/28 03:57:58;;;;;;;;;;;19.30;51.50;;;;;;4991244;28;20043;-69
2022/03/28 04:00:24;;;;;;;;;;;19.30;51.40;;;;;;5004284;28;19921;-68
2022/03/28 04:02:50;;;;;;;;;;;19.30;51.40;;;;;;5001170;28;20369;-69
2022/03/28 04:05:16;;;;;;;;;;;19.30;51.40;;;;;;4984926;28;19917;-70
2022/03/28 04:07:42;;;;;;;;;;;19.30;51.40;;;;;;4985716;28;19921;-68
2022/03/28 04:10:07;;;;;;;;;;;19.30;51.40;;;;;;4985459;28;19913;-65
2022/03/28 04:12:33;;;;;;;;;;;19.30;51.50;;;;;;5004777;28;20273;-69
2022/03/28 04:15:00;;;;;;;;;;;19.30;51.40;;;;;;5005746;28;20302;-70
2022/03/28 04:17:29;;;;;;;;;;;19.30;51.50;;;;;;5023923;28;20030;-66
2022/03/28 04:19:54;;;;;;;;;;;19.20;51.40;;;;;;4986099;28;19914;-69
2022/03/28 04:22:20;;;;;;;;;;;19.30;51.40;;;;;;4985103;28;19924;-68
2022/03/28 04:24:46;;;;;;;;;;;19.30;51.50;;;;;;5017751;28;19939;-67
2022/03/28 04:27:11;;;;;;;;;;;19.20;51.50;;;;;;5023202;28;20099;-68
2022/03/28 04:29:37;;;;;;;;;;;19.20;51.40;;;;;;5006407;28;19914;-68
2022/03/28 04:32:02;;;;;;;;;;;19.20;51.40;;;;;;5002938;28;19917;-67
2022/03/28 04:34:28;;;;;;;;;;;19.20;51.50;;;;;;4979250;28;20226;-65
2022/03/28 04:36:53;;;;;;;;;;;19.20;51.60;;;;;;5002702;28;19929;-67
2022/03/28 04:39:19;;;;;;;;;;;19.20;51.80;;;;;;4998189;28;19923;-68
2022/03/28 04:41:44;;;;;;;;;;;19.20;51.90;;;;;;5023646;28;19944;-69
2022/03/28 04:44:10;;;;;;;;;;;19.20;52.10;;;;;;4994789;28;19918;-69
2022/03/28 04:46:35;;;;;;;;;;;19.20;52.80;;;;;;4984653;28;20477;-69
2022/03/28 04:49:01;;;;;;;;;;;19.10;52.70;;;;;;5009842;28;19917;-68
2022/03/28 04:51:26;;;;;;;;;;;19.20;52.90;;;;;;5022357;28;20272;-68
2022/03/28 04:53:51;;;;;;;;;;;19.30;53.00;;;;;;5016563;28;19920;-68
2022/03/28 04:56:17;;;;;;;;;;;19.30;52.70;;;;;;5002710;28;19914;-67
2022/03/28 04:58:42;;;;;;;;;;;19.40;52.60;;;;;;5005832;28;19913;-65
2022/03/28 05:01:08;;;;;;;;;;;19.30;52.50;;;;;;5022442;28;20299;-68
2022/03/28 05:03:34;;;;;;;;;;;19.30;52.30;;;;;;5020528;28;19949;-67
2022/03/28 05:05:59;;;;;;;;;;;19.30;52.10;;;;;;5001092;28;19913;-66
2022/03/28 05:08:25;;;;;;;;;;;19.30;52.00;;;;;;5001660;28;19917;-66
2022/03/28 05:10:50;;;;;;;;;;;19.30;52.00;;;;;;5011601;28;19913;-67
2022/03/28 05:13:15;;;;;;;;;;;19.40;51.80;;;;;;5022056;28;19918;-66
2022/03/28 05:15:41;;;;;;;;;;;19.30;51.70;;;;;;5003811;28;20335;-68
2022/03/28 05:18:06;;;;;;;;;;;19.30;51.60;;;;;;4984757;28;19960;-66
2022/03/28 05:20:32;;;;;;;;;;;19.30;51.40;;;;;;5017158;28;19918;-66
2022/03/28 05:22:57;;;;;;;;;;;19.30;51.50;;;;;;5022065;28;20639;-66
2022/03/28 05:25:23;;;;;;;;;;;19.30;51.40;;;;;;5007972;28;19931;-67
2022/03/28 05:27:48;;;;;;;;;;;19.20;52.00;;;;;;5001727;28;19921;-67
2022/03/28 05:30:17;;;;;;;;;;;19.20;51.40;;;;;;5011716;28;20647;-68
2022/03/28 05:32:43;;;;;;;;;;;19.20;51.40;;;;;;5002509;28;19917;-68
2022/03/28 05:35:08;;;;;;;;;;;19.30;52.50;;;;;;4990967;28;20351;-68
2022/03/28 05:37:34;;;;;;;;;;;19.30;52.20;;;;;;4982391;28;20321;-67
2022/03/28 05:39:59;;;;;;;;;;;19.30;51.80;;;;;;4990897;28;19921;-67
2022/03/28 05:42:24;;;;;;;;;;;19.30;51.60;;;;;;5020509;28;19918;-67
2022/03/28 05:44:50;;;;;;;;;;;19.30;51.40;;;;;;4996354;28;20044;-67
2022/03/28 05:47:15;;;;;;;;;;;19.40;51.30;;;;;;5002180;28;19913;-69
2022/03/28 05:49:41;;;;;;;;;;;19.30;51.20;;;;;;4988558;28;20652;-68
2022/03/28 05:52:06;;;;;;;;;;;19.40;51.20;;;;;;5021368;28;19917;-68
2022/03/28 05:54:32;;;;;;;;;;;19.40;51.00;;;;;;5017016;28;19914;-68
2022/03/28 05:56:58;;;;;;;;;;;19.40;51.00;;;;;;5000472;28;19956;-67
2022/03/28 05:59:23;;;;;;;;;;;19.40;50.80;;;;;;5001294;28;19995;-68
2022/03/28 06:01:49;;;;;;;;;;;19.40;50.30;;;;;;4990299;28;19929;-67
2022/03/28 06:04:14;;;;;;;;;;;19.40;50.20;;;;;;5001653;28;20404;-68
2022/03/28 06:06:40;;;;;;;;;;;19.30;50.10;;;;;;5003079;28;20277;-67
2022/03/28 06:09:05;;;;;;;;;;;19.40;51.30;;;;;;5027666;28;19913;-67
2022/03/28 06:11:31;;;;;;;;;;;19.40;50.40;;;;;;5010190;28;19947;-67
2022/03/28 06:14:01;;;;;;;;;;;19.40;50.60;;;;;;5042367;22;19925;-61
2022/03/28 06:16:26;;;;;;;;;;;19.40;50.90;;;;;;5013681;28;19909;-58
2022/03/28 06:18:52;;;;;;;;;;;19.40;50.60;;;;;;5019420;28;19987;-60
2022/03/28 06:21:17;;;;;;;;;;;19.40;50.40;;;;;;5019801;28;19928;-60
2022/03/28 06:23:43;;;;;;;;;;;19.40;50.30;;;;;;5019147;28;20345;-60
2022/03/28 06:26:10;;;;;;;;;;;19.40;50.20;;;;;;5018752;28;19920;-60
2022/03/28 06:28:35;;;;;;;;;;;19.40;50.10;;;;;;5019163;28;20406;-61
2022/03/28 06:31:01;;;;;;;;;;;19.40;50.00;;;;;;5024479;28;19916;-60
2022/03/28 06:33:27;;;;;;;;;;;19.40;50.00;;;;;;5025424;28;19913;-60
2022/03/28 06:35:56;;;;;;;;;;;19.40;50.00;;;;;;5024791;28;19911;-60
2022/03/28 06:38:22;;;;;;;;;;;19.40;50.00;;;;;;5025648;28;19915;-60
2022/03/28 06:40:47;;;;;;;;;;;19.40;50.10;;;;;;5007917;28;19912;-60
2022/03/28 06:43:13;;;;;;;;;;;19.40;50.00;;;;;;5026457;28;20410;-60
2022/03/28 06:45:38;;;;;;;;;;;19.40;50.10;;;;;;5025114;28;19913;-60
2022/03/28 06:48:04;;;;;;;;;;;19.40;50.00;;;;;;5025897;28;19962;-61
2022/03/28 06:50:29;;;;;;;;;;;19.40;50.00;;;;;;5024957;28;20573;-60
2022/03/28 06:52:55;;;;;;;;;;;19.40;50.20;;;;;;5025861;28;19982;-61
2022/03/28 06:55:20;;;;;;;;;;;19.40;50.20;;;;;;5025695;28;19909;-61
2022/03/28 06:57:46;;;;;;;;;;;19.40;50.30;;;;;;5025782;28;20374;-60
2022/03/28 07:00:12;;;;;;;;;;;19.40;50.50;;;;;;5025025;28;19966;-61
2022/03/28 07:02:38;;;;;;;;;;;19.40;51.00;;;;;;5040548;28;19909;-60
2022/03/28 07:05:07;;;;;;;;;;;19.40;51.00;;;;;;5026701;28;19931;-60
2022/03/28 07:07:39;;;;;;;;;;;19.50;51.20;;;;;;5026288;28;20010;-60
2022/03/28 07:10:05;;;;;;;;;;;19.50;51.20;;;;;;5023364;28;19913;-61
2022/03/28 07:12:31;;;;;;;;;;;19.50;51.00;;;;;;5023779;28;20294;-60
2022/03/28 07:14:56;;;;;;;;;;;19.50;51.00;;;;;;5023853;28;20036;-59
2022/03/28 07:17:22;;;;;;;;;;;19.50;51.10;;;;;;5006375;28;19910;-60
2022/03/28 07:19:47;;;;;;;;;;;19.40;51.00;;;;;;5023327;28;19917;-60
2022/03/28 07:22:13;;;;;;;;;;;19.50;51.20;;;;;;5023647;28;19916;-61
2022/03/28 07:24:38;;;;;;;;;;;19.50;51.40;;;;;;5023437;28;20406;-60
2022/03/28 07:27:03;;;;;;;;;;;19.50;51.40;;;;;;5023550;28;19909;-60
2022/03/28 07:29:29;;;;;;;;;;;19.50;51.50;;;;;;5022744;28;19914;-60
2022/03/28 07:31:56;;;;;;;;;;;19.50;51.50;;;;;;5023581;28;19913;-59
2022/03/28 07:34:32;;;;;;;;;;;19.50;51.50;;;;;;5023397;28;19920;-59
2022/03/28 07:36:57;;;;;;;;;;;19.50;51.60;;;;;;5023494;28;19986;-60
2022/03/28 07:39:23;;;;;;;;;;;19.50;51.60;;;;;;5022705;28;19909;-60
2022/03/28 07:41:49;;;;;;;;;;;19.50;51.70;;;;;;5022183;28;19924;-59
2022/03/28 07:44:15;;;;;;;;;;;19.50;51.70;;;;;;5021391;28;20000;-59
2022/03/28 07:46:40;;;;;;;;;;;19.50;51.70;;;;;;5022842;28;20063;-59
2022/03/28 07:49:07;;;;;;;;;;;19.50;51.60;;;;;;5023656;28;19909;-59
2022/03/28 07:51:33;;;;;;;;;;;19.50;51.60;;;;;;5024251;28;20274;-59
2022/03/28 07:53:58;;;;;;;;;;;19.50;51.60;;;;;;5023688;28;19913;-59
2022/03/28 07:56:24;;;;;;;;;;;19.50;51.60;;;;;;5022640;28;19940;-59
2022/03/28 07:58:49;;;;;;;;;;;19.50;51.60;;;;;;5022508;28;20370;-58
2022/03/28 08:01:15;;;;;;;;;;;19.50;51.60;;;;;;5022955;28;19924;-59
2022/03/28 08:03:40;;;;;;;;;;;19.50;51.60;;;;;;5023081;28;19916;-59
2022/03/28 08:06:05;;;;;;;;;;;19.50;51.50;;;;;;5023013;28;19910;-59
2022/03/28 08:08:32;;;;;;;;;;;19.50;51.60;;;;;;5022712;28;19909;-59
2022/03/28 08:10:58;;;;;;;;;;;19.50;51.50;;;;;;5022544;28;19909;-59
2022/03/28 08:13:23;;;;;;;;;;;19.50;51.50;;;;;;5022936;28;19932;-59
2022/03/28 08:15:48;;;;;;;;;;;19.50;51.50;;;;;;5023437;28;20129;-59
2022/03/28 08:18:16;;;;;;;;;;;19.50;51.40;;;;;;5022972;28;19921;-59
2022/03/28 08:20:43;;;;;;;;;;;19.50;51.40;;;;;;5022555;28;19941;-59
2022/03/28 08:23:08;;;;;;;;;;;19.50;51.50;;;;;;5022729;28;20526;-59
2022/03/28 08:25:34;;;;;;;;;;;19.50;51.50;;;;;;5022322;28;19935;-59
2022/03/28 08:27:59;;;;;;;;;;;19.50;51.40;;;;;;5022350;28;20401;-59
2022/03/28 08:30:25;;;;;;;;;;;19.50;51.40;;;;;;5003464;28;19932;-59
2022/03/28 08:32:50;;;;;;;;;;;19.50;51.40;;;;;;5022373;28;19909;-58
2022/03/28 08:35:16;;;;;;;;;;;19.50;51.40;;;;;;5022497;28;19909;-59
2022/03/28 08:37:41;;;;;;;;;;;19.60;51.50;;;;;;5022571;28;20377;-60
2022/03/28 08:40:07;;;;;;;;;;;19.50;51.40;;;;;;5022648;28;19920;-59
2022/03/28 08:42:33;;;;;;;;;;;19.50;51.40;;;;;;5023044;28;19920;-59
2022/03/28 08:44:58;;;;;;;;;;;19.50;51.30;;;;;;5022332;28;20297;-59
2022/03/28 08:47:24;;;;;;;;;;;19.50;51.30;;;;;;5022447;28;20004;-58
2022/03/28 08:49:50;;;;;;;;;;;19.50;51.30;;;;;;5021974;28;19909;-58
2022/03/28 08:52:16;;;;;;;;;;;19.50;51.40;;;;;;5021755;28;20342;-58
2022/03/28 08:54:42;;;;;;;;;;;19.60;51.40;;;;;;5021869;28;19916;-58
2022/03/28 08:57:07;;;;;;;;;;;19.50;51.30;;;;;;5022113;28;20000;-59
2022/03/28 08:59:33;;;;;;;;;;;19.60;51.40;;;;;;5021489;28;19920;-58
2022/03/28 09:01:58;;;;;;;;;;;19.60;51.40;;;;;;5022435;28;19913;-59
2022/03/28 09:04:24;;;;;;;;;;;19.50;51.30;;;;;;5022605;28;20553;-59
2022/03/28 09:06:49;;;;;;;;;;;19.50;51.30;;;;;;5022972;28;19921;-60
2022/03/28 09:09:19;;;;;;;;;;;19.60;51.40;;;;;;5022102;28;19909;-58
2022/03/28 09:11:45;;;;;;;;;;;19.60;51.30;;;;;;5022313;28;19935;-61
2022/03/28 09:14:12;;;;;;;;;;;19.60;51.30;;;;;;5022098;28;19917;-59
2022/03/28 09:16:37;;;;;;;;;;;19.60;51.30;;;;;;5021980;28;20367;-60
2022/03/28 09:19:08;;;;;;;;;;;19.60;51.30;;;;;;5021424;28;19909;-61
2022/03/28 09:21:33;;;;;;;;;;;19.60;51.30;;;;;;5004786;28;20040;-59
2022/03/28 09:23:59;;;;;;;;;;;19.60;51.30;;;;;;5003879;28;20012;-58
2022/03/28 09:26:25;;;;;;;;;;;19.60;51.20;;;;;;5021700;28;19916;-60
2022/03/28 09:28:54;;;;;;;;;;;19.60;51.30;;;;;;5021423;28;20374;-60
2022/03/28 09:31:24;;;;;;;;;;;19.60;51.20;;;;;;5004116;28;19963;-60
2022/03/28 09:34:09;;;;;;;;;;;19.60;51.30;;;;;;5021688;28;19913;-61
2022/03/28 09:36:48;;;;;;;;;;;19.60;51.20;;;;;;5021044;28;19916;-60
2022/03/28 09:39:32;;;;;;;;;;;19.60;51.20;;;;;;5021195;28;20010;-60
2022/03/28 09:42:08;;;;;;;;;;;19.60;51.20;;;;;;5004413;28;19916;-61
2022/03/28 09:44:34;;;;;;;;;;;19.60;51.20;;;;;;5021479;28;20616;-61
2022/03/28 09:47:06;;;;;;;;;;;19.60;51.20;;;;;;5021326;28;19913;-59
2022/03/28 09:49:32;;;;;;;;;;;19.60;51.20;;;;;;5021368;28;19909;-59
2022/03/28 09:52:08;;;;;;;;;;;19.60;51.20;;;;;;5021628;28;20392;-59
2022/03/28 09:54:44;;;;;;;;;;;19.60;51.20;;;;;;5021187;28;19909;-57
2022/03/28 09:57:10;;;;;;;;;;;19.60;51.20;;;;;;5021206;28;19915;-59
2022/03/28 09:59:36;;;;;;;;;;;19.60;51.10;;;;;;5002553;28;19913;-59
2022/03/28 10:02:12;;;;;;;;;;;19.60;51.20;;;;;;5021499;28;19920;-58
2022/03/28 10:04:38;;;;;;;;;;;19.70;51.20;;;;;;5021147;28;19982;-59
2022/03/28 10:07:04;;;;;;;;;;;19.60;51.20;;;;;;5021010;28;20000;-59
2022/03/28 10:09:29;;;;;;;;;;;19.60;51.00;;;;;;5020646;28;19959;-59
2022/03/28 10:11:55;;;;;;;;;;;19.70;51.10;;;;;;5002763;28;19909;-59
2022/03/28 10:14:21;;;;;;;;;;;19.70;51.10;;;;;;5020925;28;19917;-58
2022/03/28 10:16:46;;;;;;;;;;;19.60;51.00;;;;;;5004128;28;19910;-59
2022/03/28 10:19:12;;;;;;;;;;;19.70;51.10;;;;;;5003593;28;20317;-59
2022/03/28 10:21:37;;;;;;;;;;;19.70;51.10;;;;;;5021076;28;19909;-59
2022/03/28 10:24:18;;;;;;;;;;;19.70;51.00;;;;;;5002825;28;20667;-58
2022/03/28 10:26:48;;;;;;;;;;;19.70;51.10;;;;;;5020746;28;19920;-59
2022/03/28 10:29:15;;;;;;;;;;;19.70;51.00;;;;;;5002767;28;19916;-58
2022/03/28 10:31:54;;;;;;;;;;;19.70;51.00;;;;;;5021060;28;19909;-59
2022/03/28 10:34:38;;;;;;;;;;;19.70;51.10;;;;;;5019492;28;20570;-59
2022/03/28 10:37:22;;;;;;;;;;;19.70;51.00;;;;;;5020976;28;19947;-58
2022/03/28 10:39:48;;;;;;;;;;;19.70;51.00;;;;;;5020419;28;20378;-59
2022/03/28 10:42:16;;;;;;;;;;;19.70;51.00;;;;;;5021517;28;19915;-56
2022/03/28 10:44:46;;;;;;;;;;;19.70;51.00;;;;;;5021795;28;19988;-59
2022/03/28 10:47:14;;;;;;;;;;;19.70;51.00;;;;;;5021096;28;19909;-58
2022/03/28 10:49:42;;;;;;;;;;;19.70;51.00;;;;;;5020309;28;19917;-59
2022/03/28 10:52:10;;;;;;;;;;;19.70;51.00;;;;;;5021177;28;20487;-58
2022/03/28 10:54:39;;;;;;;;;;;19.80;51.00;;;;;;5020535;28;19909;-59
2022/03/28 10:57:04;;;;;;;;;;;19.80;51.00;;;;;;5020793;28;19949;-59
2022/03/28 10:59:31;;;;;;;;;;;19.80;51.00;;;;;;5019792;28;19909;-59
2022/03/28 11:01:56;;;;;;;;;;;19.80;51.10;;;;;;5020703;28;19916;-59
2022/03/28 11:04:23;;;;;;;;;;;19.80;51.00;;;;;;5020187;28;19909;-58
2022/03/28 11:06:52;;;;;;;;;;;19.80;51.00;;;;;;5021418;28;20007;-59
2022/03/28 11:09:34;;;;;;;;;;;19.80;51.00;;;;;;5020547;28;20393;-59
2022/03/28 11:12:06;;;;;;;;;;;19.80;51.00;;;;;;5020391;28;19924;-59
2022/03/28 11:14:57;;;;;;;;;;;19.80;51.00;;;;;;5020026;28;19917;-60
2022/03/28 11:17:24;;;;;;;;;;;19.80;51.00;;;;;;5019956;28;19955;-59
2022/03/28 11:19:56;;;;;;;;;;;19.80;50.90;;;;;;5023481;28;19960;-58
2022/03/28 11:22:37;;;;;;;;;;;19.80;50.90;;;;;;5024157;28;19909;-59
2022/03/28 11:25:03;;;;;;;;;;;19.80;51.00;;;;;;5023843;28;19920;-57
2022/03/28 11:27:29;;;;;;;;;;;19.90;51.00;;;;;;5024342;28;20371;-60
2022/03/28 11:30:04;;;;;;;;;;;19.90;50.90;;;;;;5023575;28;19909;-58
2022/03/28 11:32:35;;;;;;;;;;;19.90;50.90;;;;;;5024618;28;20340;-60
2022/03/28 11:35:01;;;;;;;;;;;19.90;51.00;;;;;;5024951;28;20004;-59
2022/03/28 11:37:27;;;;;;;;;;;19.90;50.90;;;;;;5023538;28;20281;-67
2022/03/28 11:39:53;;;;;;;;;;;20.00;50.90;;;;;;5023242;28;19967;-59
2022/03/28 11:42:19;;;;;;;;;;;19.90;50.90;;;;;;5024446;28;19917;-60
2022/03/28 11:44:45;;;;;;;;;;;19.90;50.90;;;;;;5023469;28;19917;-59
2022/03/28 11:47:10;;;;;;;;;;;20.00;50.90;;;;;;5023883;28;19967;-59
2022/03/28 11:49:49;;;;;;;;;;;20.00;50.90;;;;;;5023003;28;20437;-58
2022/03/28 11:52:18;;;;;;;;;;;20.00;51.50;;;;;;5023883;28;20408;-59
2022/03/28 11:54:43;;;;;;;;;;;20.00;50.90;;;;;;5005800;28;19983;-60
2022/03/28 11:59:53;;;;;;;;;;;20.00;50.90;;;;;;5023420;28;19921;-60
2022/03/28 12:02:19;;;;;;;;;;;20.00;50.90;;;;;;5023487;28;19967;-60
2022/03/28 12:04:45;;;;;;;;;;;20.00;50.80;;;;;;5023399;28;19913;-59
2022/03/28 12:07:11;;;;;;;;;;;20.00;50.80;;;;;;5023390;28;19909;-59
2022/03/28 12:09:40;;;;;;;;;;;20.00;50.80;;;;;;5022874;28;19994;-58
2022/03/28 12:12:05;;;;;;;;;;;20.00;50.80;;;;;;5023118;28;20440;-59
2022/03/28 12:14:31;;;;;;;;;;;20.00;50.80;;;;;;5023140;28;19952;-60
2022/03/28 12:16:57;;;;;;;;;;;20.00;50.80;;;;;;5022468;28;20283;-60
2022/03/28 12:19:23;;;;;;;;;;;20.00;50.80;;;;;;5022898;28;19917;-60
2022/03/28 12:21:49;;;;;;;;;;;20.00;50.70;;;;;;5023308;28;19975;-60
2022/03/28 12:24:15;;;;;;;;;;;20.10;50.80;;;;;;5022718;28;19913;-59
2022/03/28 12:26:41;;;;;;;;;;;20.10;50.80;;;;;;5022585;28;19999;-59
2022/03/28 12:29:09;;;;;;;;;;;20.10;50.80;;;;;;5023029;28;19920;-59
2022/03/28 12:31:34;;;;;;;;;;;20.10;50.80;;;;;;5005973;28;19919;-58
2022/03/28 12:33:59;;;;;;;;;;;20.10;50.80;;;;;;5023476;28;19913;-60
2022/03/28 12:36:25;;;;;;;;;;;20.10;50.80;;;;;;5005430;28;19916;-59
2022/03/28 12:39:00;;;;;;;;;;;20.10;50.80;;;;;;5023310;28;19963;-58
2022/03/28 12:41:28;;;;;;;;;;;20.10;50.70;;;;;;5024187;28;19933;-59
2022/03/28 12:43:54;;;;;;;;;;;20.10;50.70;;;;;;5023079;28;19952;-59
2022/03/28 12:46:20;;;;;;;;;;;20.10;50.70;;;;;;5024685;28;19948;-60
2022/03/28 12:48:46;;;;;;;;;;;20.10;50.70;;;;;;5022923;28;20203;-60
2022/03/28 12:51:19;;;;;;;;;;;20.10;50.70;;;;;;5023051;28;20206;-59
2022/03/28 12:53:45;;;;;;;;;;;20.10;50.70;;;;;;5022537;28;20341;-59
2022/03/28 12:56:14;;;;;;;;;;;20.10;50.70;;;;;;5022576;28;19916;-59
2022/03/28 12:58:39;;;;;;;;;;;20.10;50.70;;;;;;5022245;28;19913;-59
2022/03/28 13:01:05;;;;;;;;;;;20.20;50.70;;;;;;5022315;28;19917;-60
2022/03/28 13:03:33;;;;;;;;;;;20.20;50.70;;;;;;5022295;28;20017;-58
2022/03/28 13:06:06;;;;;;;;;;;20.20;50.80;;;;;;5021952;28;19913;-58
2022/03/28 13:08:32;;;;;;;;;;;20.20;50.80;;;;;;5022073;28;19909;-58
2022/03/28 13:11:08;;;;;;;;;;;20.20;50.70;;;;;;5022053;28;19909;-60
2022/03/28 13:13:35;;;;;;;;;;;20.20;50.70;;;;;;5004370;28;20226;-59
2022/03/28 13:16:00;;;;;;;;;;;20.20;50.80;;;;;;5022322;28;19909;-59
2022/03/28 13:18:26;;;;;;;;;;;20.20;50.70;;;;;;5021817;28;19916;-60
2022/03/28 13:20:54;;;;;;;;;;;20.20;50.70;;;;;;5021620;28;19920;-59
2022/03/28 13:23:20;;;;;;;;;;;20.20;50.70;;;;;;5022147;28;19966;-59
2022/03/28 13:25:46;;;;;;;;;;;20.20;50.70;;;;;;5021228;28;19917;-59
2022/03/28 13:28:15;;;;;;;;;;;20.20;50.70;;;;;;5021952;28;19932;-59
2022/03/28 13:30:40;;;;;;;;;;;20.20;50.70;;;;;;5021122;28;19916;-60
2022/03/28 13:33:06;;;;;;;;;;;20.30;50.70;;;;;;5021923;28;19909;-58
2022/03/28 13:35:31;;;;;;;;;;;20.20;50.60;;;;;;5021555;28;20393;-59
2022/03/28 13:37:58;;;;;;;;;;;20.30;50.70;;;;;;5021940;28;19909;-59
2022/03/28 13:40:24;;;;;;;;;;;20.30;50.70;;;;;;5021410;28;19967;-59
2022/03/28 13:42:49;;;;;;;;;;;20.30;50.60;;;;;;5022072;28;19924;-59
2022/03/28 13:45:15;;;;;;;;;;;20.30;50.70;;;;;;5021372;28;20369;-59
2022/03/28 13:47:40;;;;;;;;;;;20.30;50.60;;;;;;5021627;28;20300;-59
2022/03/28 13:50:06;;;;;;;;;;;20.30;50.60;;;;;;5020700;28;19924;-59
2022/03/28 13:52:31;;;;;;;;;;;20.30;50.60;;;;;;5021488;28;19909;-59
2022/03/28 13:54:57;;;;;;;;;;;20.30;50.60;;;;;;5021044;28;19932;-59
2022/03/28 13:57:22;;;;;;;;;;;20.30;50.60;;;;;;5021364;28;19940;-60
2022/03/28 13:59:48;;;;;;;;;;;20.40;50.60;;;;;;5020653;28;20492;-59
2022/03/28 14:02:13;;;;;;;;;;;20.30;50.50;;;;;;5021731;28;19913;-58
2022/03/28 14:04:39;;;;;;;;;;;20.40;50.60;;;;;;5021437;28;19996;-59
2022/03/28 14:07:04;;;;;;;;;;;20.30;50.50;;;;;;5021406;28;19909;-60
2022/03/28 14:09:30;;;;;;;;;;;20.40;50.60;;;;;;5002858;28;19909;-59
2022/03/28 14:11:55;;;;;;;;;;;20.40;50.60;;;;;;5021415;28;19909;-60
2022/03/28 14:14:23;;;;;;;;;;;20.40;50.60;;;;;;5020575;28;19924;-59
2022/03/28 14:16:49;;;;;;;;;;;20.40;50.60;;;;;;5021255;28;19909;-59
2022/03/28 14:19:15;;;;;;;;;;;20.40;50.60;;;;;;5020156;28;19935;-59